Station: Woolshed  

  Atmospheric Gas Attenuation - ITU Rec 676-11   ----------------- dB/100km -----------------
Date Time Temp RH % AH g/m3 Dew Point Wind Direction Speed kph Gust kph Barometer mB Rainfall Since 9am 24GHz 47GHz 76GHz 122GHz 134GHz 241GHz
08/05 12:40 24.4 60 13.35 16.1 7 11 1016.4 0 29.0 30.4 53.0 139.7 145.2 503.6
08/05 12:30 24.5 63 14.1 17.2 7 17 1016.5 0 30.6 31.6 56.0 147.8 155.2 538.3
08/05 12:20 24.2 61 13.42 16.4 7 9 1016.7 0 29.2 30.6 53.4 140.9 146.6 508.2
08/05 12:10 24.4 61 13.57 16.6 6 7 1016.7 0 29.5 30.8 53.9 142.1 148.2 514.0
08/05 12:00 24 63 13.71 16.5 7 15 1016.8 0 29.8 31.2 54.8 144.4 150.9 523.3
08/05 11:50 23.9 65 14.06 17.1 7 11 1016.9 0 30.6 31.8 56.3 148.5 155.9 540.7
08/05 11:40 24 63 13.71 16.5 6 9 1017.1 0 29.8 31.2 54.8 144.5 150.9 523.4
08/05 11:30 24 65 14.14 17 9 17 1017.1 0 30.7 31.9 56.6 149.2 156.8 543.9
08/05 11:20 23.6 67 14.25 17.1 7 11 1017.3 0 31.0 32.2 57.3 151.3 159.2 552.1
08/05 11:10 23.8 68 14.63 17.7 9 13 1017.5 0 31.8 32.8 58.8 155.2 164.1 569.2
08/05 11:00 23.3 68 14.22 17.1 9 19 1017.6 0 30.9 32.3 57.4 151.6 159.4 552.9
08/05 10:50 22.9 70 14.3 17.1 9 13 1017.6 0 31.1 32.6 58.1 153.3 161.4 559.7
08/05 10:40 23.1 70 14.47 17.5 9 11 1017.8 0 31.5 32.8 58.7 154.8 163.4 566.6
08/05 10:30 22.9 75 15.33 18.2 9 19 1017.8 0 33.3 34.4 62.6 165.2 176.1 610.9
08/05 10:20 22.5 70 13.98 16.9 9 11 1018 0 30.5 32.2 57.0 150.4 157.8 547.0
08/05 10:10 22.6 73 14.66 17.5 6 9 1017.9 0 31.9 33.3 59.9 158.0 167.2 579.8
08/05 10:00 22.7 73 14.75 17.6 11 26 1017.9 0 32.1 33.5 60.2 158.9 168.2 583.5
08/05 09:50 23.2 71 14.76 17.6 7 11 1017.8 0 32.1 33.3 59.8 158.0 167.2 580.2
08/05 09:40 22.7 73 14.75 17.6 9 17 1017.6 0 32.1 33.5 60.2 158.8 168.2 583.4
08/05 09:30 22.4 73 14.5 17.3 7 19 1017.6 0 31.6 33.1 59.3 156.6 165.3 573.2
08/05 09:20 22.2 75 14.72 17.7 11 15 1017.6 0 32.1 33.6 60.4 159.5 168.9 585.7
08/05 09:10 21.4 77 14.43 17.2 7 17 1017.5 0 31.5 33.4 59.8 157.8 166.4 577.1
08/05 09:00 21.7 77 14.69 17.5 11 22 1017.4 0 32.1 33.7 60.7 160.2 169.5 587.9
08/05 08:50 21.6 78 14.79 17.6 7 9 1017.3 0 32.3 33.9 61.2 161.6 171.2 593.7
08/05 08:40 21.3 78 14.54 17.3 9 19 1017.1 0 31.8 33.6 60.3 159.2 168.2 583.2
08/05 08:30 21.3 79 14.72 17.5 7 17 1017.2 0 32.2 33.9 61.1 161.3 170.8 592.4
08/05 08:20 21 80 14.65 17.4 11 15 1017.1 0 32.0 33.9 61.0 161.1 170.5 591.1
08/05 08:10 20.8 82 14.85 17.6 6 9 1017.2 0 32.5 34.4 62.1 163.9 173.9 602.9
08/05 08:00 20.3 82 14.42 17.1 6 13 1017.1 0 31.6 33.8 60.6 159.9 168.7 584.8
08/05 07:50 19.9 88 15.12 17.8 7 7 1017 0 33.1 35.2 64.1 169.1 180.0 624.0
08/05 07:40 19.3 92 15.26 17.9 4 4 1016.9 0 33.5 35.7 65.2 172.2 183.5 636.3
08/05 07:30 18.4 96 15.1 17.8 2 6 1016.7 0 33.2 35.8 65.2 172.2 183.3 635.3
08/05 07:20 17.4 96 14.23 16.7 2 2 1016.6 0 31.4 34.6 62.0 163.6 172.4 597.2
08/05 07:10 17.3 97 14.29 16.8 2 4 1016.6 0 31.6 34.7 62.4 164.6 173.5 601.2
08/05 07:00 17.2 97 14.2 16.7 2 4 1016.6 0 31.4 34.6 62.0 163.7 172.4 597.2
08/05 06:50 16.8 97 13.87 16.3 4 4 1016.3 0 30.7 34.1 60.8 160.4 168.2 582.8
08/05 06:40 16.8 96 13.72 16.1 0 0 1016.2 0 30.4 33.9 60.1 158.6 166.0 574.8
08/05 06:30 16.9 97 13.95 16.4 0 2 1016 0 30.9 34.2 61.1 161.2 169.2 586.1
08/05 06:20 16.8 96 13.72 16.1 2 4 1015.9 0 30.4 33.8 60.1 158.5 165.9 574.7
08/05 06:10 17.1 95 13.83 16.3 0 2 1015.8 0 30.6 33.9 60.4 159.2 166.9 578.1
08/05 06:00 17.6 94 14.1 16.6 2 6 1015.7 0 31.1 34.2 61.2 161.5 169.8 588.4
08/05 05:50 17.8 93 14.11 16.6 0 2 1015.5 0 31.1 34.2 61.1 161.2 169.5 587.3
08/05 05:40 18.1 93 14.37 16.9 4 4 1015.3 0 31.7 34.5 62.0 163.7 172.7 598.5
08/05 05:30 18.1 91 14.06 16.6 0 2 1015.2 0 31.0 33.9 60.6 159.9 168.0 582.3
08/05 05:20 18.4 91 14.31 16.9 4 4 1015.2 0 31.5 34.3 61.5 162.3 171.1 593.0
08/05 05:10 18.5 91 14.4 17 2 2 1015.1 0 31.7 34.4 61.8 163.1 172.2 596.8
08/05 05:00 18.7 90 14.41 17 2 7 1015 0 31.7 34.3 61.7 162.8 171.9 595.7
08/05 04:50 18.8 90 14.49 17.1 2 4 1015 0 31.9 34.4 62.0 163.6 172.9 599.1
08/05 04:40 18.8 90 14.49 17.1 0 0 1015 0 31.9 34.4 62.0 163.6 172.9 599.1
08/05 04:30 19 89 14.5 17.1 2 6 1015 0 31.9 34.4 61.9 163.3 172.5 598.1
08/05 04:20 19.1 88 14.42 17 2 2 1015 0 31.7 34.2 61.4 162.1 171.1 593.1
08/05 04:10 19 89 14.5 17.1 2 4 1014.9 0 31.9 34.4 61.8 163.3 172.5 598.0
08/05 04:00 19 88 14.34 17 0 2 1014.9 0 31.5 34.1 61.1 161.3 170.2 589.7
08/05 03:50 19.2 86 14.18 16.9 2 4 1014.8 0 31.2 33.7 60.2 159.0 167.3 579.9
08/05 03:40 19.2 86 14.18 16.8 2 4 1014.9 0 31.2 33.7 60.2 159.0 167.3 579.9
08/05 03:30 19.2 86 14.18 16.8 2 7 1014.9 0 31.2 33.7 60.2 159.0 167.3 579.9
08/05 03:20 19.1 85 13.93 16.5 4 6 1014.9 0 30.7 33.3 59.2 156.2 163.9 567.9
08/05 03:10 18.8 87 14.01 16.6 0 4 1014.9 0 30.9 33.5 59.8 157.8 165.7 574.2
08/05 03:00 18.8 87 14.01 16.6 4 9 1014.9 0 30.9 33.5 59.8 157.8 165.7 574.2
08/05 02:50 18.8 87 14.01 16.6 4 6 1014.9 0 30.9 33.5 59.8 157.8 165.7 574.2
08/05 02:40 18.7 91 14.57 17.2 4 4 1015 0 32.1 34.6 62.4 164.8 174.3 604.1
08/05 02:30 18.7 92 14.73 17.4 4 7 1014.9 0 32.4 34.9 63.1 166.7 176.7 612.4
08/05 02:20 18.6 94 14.96 17.6 4 7 1014.9 0 32.9 35.4 64.3 169.8 180.4 625.4
08/05 02:10 18.5 96 15.19 17.8 6 7 1014.9 0 33.4 35.8 65.5 172.9 184.2 638.4
08/05 02:00 18.2 97 15.08 17.7 4 7 1015 0 33.2 35.8 65.2 172.2 183.2 635.1
08/05 01:50 17.7 97 14.63 17.2 4 6 1015 0 32.3 35.1 63.5 167.7 177.5 615.3
08/05 01:40 17.6 96 14.4 16.9 0 0 1015.1 0 31.8 34.8 62.5 165.1 174.3 603.9
08/05 01:30 17.8 97 14.72 17.3 0 0 1015.1 0 32.5 35.3 63.9 168.6 178.7 619.3
08/05 01:20 18.1 97 14.99 17.6 0 0 1015.2 0 33.0 35.7 64.9 171.3 182.1 631.3
08/05 01:10 18.1 97 14.99 17.6 0 0 1015.3 0 33.0 35.7 64.9 171.3 182.1 631.3
08/05 01:00 18.3 97 15.17 17.8 0 0 1015.3 0 33.4 35.9 65.6 173.1 184.4 639.2
08/05 00:50 18.3 96 15.01 17.6 0 0 1015.4 0 33.0 35.6 64.8 171.1 182.0 630.7
08/05 00:40 18.4 96 15.1 17.7 0 0 1015.5 0 33.2 35.7 65.2 172.0 183.1 634.8
08/05 00:30 18.5 96 15.19 17.9 0 0 1015.4 0 33.4 35.9 65.5 172.9 184.2 638.7
08/05 00:20 18.8 96 15.46 18.1 0 0 1015.3 0 34.0 36.2 66.5 175.6 187.6 650.5
08/05 00:10 19 94 15.32 18.1 0 0 1015.5 0 33.7 35.9 65.7 173.4 185.0 641.4
08/05 00:00 19.1 94 15.41 18.1 2 6 1015.4 0 33.8 36.0 66.0 174.3 186.1 645.3
07/05 23:50 19.2 96 15.83 18.5 6 6 1015.6 0 34.7 36.8 67.9 179.3 192.3 667.0
07/05 23:40 19.3 97 16.09 18.8 2 4 1015.7 0 35.3 37.2 69.0 182.4 196.1 680.2
07/05 23:30 19.5 97 16.28 19 4 6 1015.7 0 35.7 37.5 69.8 184.3 198.5 688.7
07/05 23:20 19.6 97 16.37 19.1 4 6 1015.8 0 35.9 37.6 70.1 185.2 199.7 692.7
07/05 23:10 19.7 97 16.47 19.2 6 7 1016 0 36.1 37.8 70.5 186.3 201.0 697.3
07/05 23:00 19.8 97 16.57 19.3 4 7 1016 0 36.3 37.9 70.9 187.3 202.3 701.8
07/05 22:50 19.8 97 16.57 19.3 2 2 1016 0 36.3 37.9 70.9 187.3 202.3 701.8
07/05 22:40 19.9 97 16.66 19.4 4 6 1016 0 36.4 38.1 71.2 188.2 203.4 705.8
07/05 22:30 20 97 16.76 19.5 6 13 1016.2 0 36.7 38.2 71.6 189.3 204.8 710.4
07/05 22:20 20 97 16.76 19.5 4 6 1016.2 0 36.7 38.2 71.6 189.3 204.8 710.4
07/05 22:10 20.1 97 16.86 19.6 4 6 1016.3 0 36.9 38.4 72.0 190.3 206.1 715.0
07/05 22:00 20 97 16.76 19.5 6 15 1016.3 0 36.7 38.2 71.6 189.3 204.8 710.5
07/05 21:50 20 97 16.76 19.5 2 4 1016.4 0 36.7 38.2 71.6 189.3 204.8 710.5
07/05 21:40 19.9 97 16.66 19.4 6 7 1016.3 0 36.4 38.1 71.2 188.3 203.5 705.9
07/05 21:30 19.9 97 16.66 19.4 6 13 1016.4 0 36.4 38.1 71.3 188.3 203.5 706.0
07/05 21:20 19.8 97 16.57 19.3 4 6 1016.3 0 36.3 38.0 70.9 187.4 202.4 702.0
07/05 21:10 19.7 98 16.64 19.3 4 6 1016.3 0 36.4 38.1 71.3 188.5 203.7 706.7
07/05 21:00 19.6 97 16.37 19.1 4 7 1016.2 0 35.9 37.7 70.1 185.3 199.8 692.9
07/05 20:50 19.3 97 16.09 18.8 0 4 1016.2 0 35.3 37.3 69.1 182.5 196.2 680.4
07/05 20:40 19.2 97 15.99 18.7 0 0 1016 0 35.1 37.1 68.7 181.4 194.9 675.8
07/05 20:30 19.3 96 15.92 18.6 2 6 1016 0 34.9 36.9 68.3 180.3 193.5 671.2
07/05 20:20 19.4 96 16.02 18.7 0 2 1016 0 35.1 37.1 68.6 181.3 194.8 675.7
07/05 20:10 19.5 96 16.11 18.8 2 4 1015.9 0 35.3 37.2 69.0 182.2 195.9 679.6

Last Refresh: 08-May-2026 12:10:20

Bureau of Meteorology